KSQI/SQI METAR and TAF weather

Enter ICAO airport designator
Station Type Date Time Source
KSQI METAR 2021/02/25 00:56 UTC NOAA

KSQI 250056Z 23005KT 10SM CLR 01/M02 A3019 RMK AO2 SLP089 T00111017 FZRANO


Station Type Date Time Source
KSQI Decoded METAR 2021/02/25 00:56 UTC NOAA

Sterling Rockfalls, IL, United States (KSQI) 41-45N 089-40W
Feb 24, 2021 - 07:56 PM EST / 2021.02.25 0056 UTC
Wind: from the SW (230 degrees) at 6 MPH (5 KT):0
Visibility: 10 mile(s):0
Sky conditions: clear
Temperature: 34.0 F (1.1 C)
Windchill: 28 F (-2 C):1
Dew Point: 28.9 F (-1.7 C)
Relative Humidity: 81%
Pressure (altimeter): 30.19 in. Hg (1022 hPa)
ob: KSQI 250056Z 23005KT 10SM CLR 01/M02 A3019 RMK AO2 SLP089 T00111017 FZRANO
cycle: 1

Station Type Date Time Source
KSQI TAF UTC NOAA

Error!

Example: see airport list